createdAt,value
2023-06-29T00:00:36.147Z,239.09
2023-06-29T00:01:36.256Z,240.77
2023-06-29T00:02:36.283Z,236.05
2023-06-29T00:03:36.319Z,238.68
2023-06-29T00:04:36.319Z,236.12
2023-06-29T00:05:36.345Z,240.48
2023-06-29T00:06:36.414Z,239.38
2023-06-29T00:07:36.493Z,242.27
2023-06-29T00:08:36.650Z,239.11
2023-06-29T00:09:36.502Z,237.90
2023-06-29T00:10:36.587Z,235.95
2023-06-29T00:11:36.611Z,240.46
2023-06-29T00:12:36.658Z,242.27
2023-06-29T00:13:36.681Z,235.96
2023-06-29T00:14:36.744Z,235.62
2023-06-29T00:15:36.785Z,238.11
2023-06-29T00:16:36.874Z,239.47
2023-06-29T00:17:36.872Z,239.08
2023-06-29T00:18:36.889Z,240.20
2023-06-29T00:19:36.915Z,237.12
2023-06-29T00:20:36.947Z,237.76
2023-06-29T00:21:37.005Z,240.62
2023-06-29T00:22:37.028Z,238.72
2023-06-29T00:23:37.087Z,240.21
2023-06-29T00:24:37.128Z,236.98
2023-06-29T00:25:37.182Z,240.75
2023-06-29T00:26:37.270Z,235.28
2023-06-29T00:27:37.273Z,239.93
2023-06-29T00:28:37.283Z,236.35
2023-06-29T00:29:37.331Z,237.54
2023-06-29T00:30:37.414Z,236.23
2023-06-29T00:31:37.541Z,235.52
2023-06-29T00:32:37.491Z,239.06
2023-06-29T00:33:37.498Z,241.92
2023-06-29T00:34:37.551Z,240.78
2023-06-29T00:35:37.580Z,235.92
2023-06-29T00:36:37.687Z,240.26
2023-06-29T00:37:37.661Z,237.64
2023-06-29T00:38:37.764Z,236.49
2023-06-29T00:39:37.791Z,241.16
2023-06-29T00:40:37.827Z,238.33
2023-06-29T00:41:37.890Z,239.29
2023-06-29T00:42:37.927Z,234.51
2023-06-29T00:43:37.943Z,238.20
2023-06-29T00:44:37.984Z,238.49
2023-06-29T00:45:38.029Z,235.34
2023-06-29T00:46:38.117Z,237.78
2023-06-29T00:47:38.166Z,237.92
2023-06-29T00:48:38.157Z,237.96
2023-06-29T00:49:38.180Z,237.83
2023-06-29T00:50:38.246Z,239.21
2023-06-29T00:51:38.271Z,238.64
2023-06-29T00:52:38.317Z,244.36
2023-06-29T00:53:38.369Z,240.99
2023-06-29T00:54:38.362Z,239.90
2023-06-29T00:55:38.443Z,239.41
2023-06-29T00:56:38.473Z,239.00
2023-06-29T00:57:38.488Z,239.63
2023-06-29T00:58:38.533Z,242.21
2023-06-29T00:59:38.565Z,239.70
2023-06-29T01:00:38.634Z,241.77
2023-06-29T01:01:38.640Z,243.38
2023-06-29T01:02:38.856Z,241.10
2023-06-29T01:03:38.823Z,239.22
2023-06-29T01:04:38.758Z,238.77
2023-06-29T01:05:38.824Z,240.26
2023-06-29T01:06:38.895Z,238.55
2023-06-29T01:07:38.926Z,242.52
2023-06-29T01:08:38.948Z,241.36
2023-06-29T01:09:39.012Z,240.90
2023-06-29T01:10:39.057Z,242.70
2023-06-29T01:11:39.097Z,240.43
2023-06-29T01:12:39.123Z,244.54
2023-06-29T01:13:39.197Z,242.57
2023-06-29T01:14:39.245Z,240.93
2023-06-29T01:15:39.232Z,241.18
2023-06-29T01:16:39.284Z,242.46
2023-06-29T01:17:39.359Z,242.31
2023-06-29T01:18:39.366Z,246.19
2023-06-29T01:19:39.353Z,245.92
2023-06-29T01:20:39.435Z,244.04
2023-06-29T01:21:39.452Z,242.32
2023-06-29T01:22:39.476Z,245.38
2023-06-29T01:24:16.251Z,25.00
2023-06-29T01:25:16.281Z,25.00
2023-06-29T01:26:16.269Z,25.00
2023-06-29T01:27:16.250Z,25.00
2023-06-29T01:28:16.726Z,25.00
2023-06-29T01:29:16.220Z,26.52
2023-06-29T01:30:16.258Z,33.37
2023-06-29T01:31:16.219Z,27.99
2023-06-29T01:32:16.210Z,28.27
2023-06-29T01:33:16.223Z,29.92
2023-06-29T01:34:16.215Z,25.79
2023-06-29T01:35:16.163Z,36.13
2023-06-29T01:36:16.156Z,27.72
2023-06-29T01:37:16.159Z,34.50
2023-06-29T01:38:16.161Z,30.48
2023-06-29T01:39:16.160Z,33.68
2023-06-29T01:40:16.132Z,28.74
2023-06-29T01:41:16.136Z,31.89
2023-06-29T01:42:16.117Z,30.53
2023-06-29T01:43:16.115Z,30.83
2023-06-29T01:44:16.078Z,41.90
2023-06-29T01:45:16.111Z,31.19
2023-06-29T01:46:16.130Z,38.69
2023-06-29T01:47:16.083Z,39.37
2023-06-29T01:48:16.086Z,37.49
2023-06-29T01:49:16.071Z,33.31
2023-06-29T01:50:16.073Z,29.54
2023-06-29T01:51:16.046Z,35.07
2023-06-29T01:52:16.046Z,33.10
2023-06-29T01:53:16.053Z,35.67
2023-06-29T01:54:16.014Z,39.77
2023-06-29T01:55:16.042Z,26.05
2023-06-29T01:56:16.032Z,32.65
2023-06-29T01:57:15.989Z,38.61
2023-06-29T01:58:15.991Z,36.79
2023-06-29T01:59:15.986Z,36.58
2023-06-29T02:00:16.005Z,29.56
2023-06-29T02:01:15.979Z,34.21
2023-06-29T02:02:16.067Z,28.78
2023-06-29T02:03:16.432Z,27.59
2023-06-29T02:04:15.938Z,31.00
2023-06-29T02:05:15.966Z,27.89
2023-06-29T02:06:15.938Z,32.24
2023-06-29T02:07:15.954Z,31.56
2023-06-29T02:08:16.261Z,35.46
2023-06-29T02:09:15.921Z,36.47
2023-06-29T02:10:15.926Z,33.87
2023-06-29T02:11:15.873Z,33.69
2023-06-29T02:12:15.897Z,38.29
2023-06-29T02:13:16.216Z,38.78
2023-06-29T02:14:15.885Z,31.54
2023-06-29T02:15:15.870Z,35.71
2023-06-29T02:16:15.888Z,33.31
2023-06-29T02:17:15.865Z,36.00
2023-06-29T02:18:16.289Z,29.50
2023-06-29T02:19:15.913Z,31.19
2023-06-29T02:20:15.914Z,31.92
2023-06-29T02:21:15.944Z,32.19
2023-06-29T02:22:16.025Z,33.40
2023-06-29T02:23:16.234Z,37.82
2023-06-29T02:24:16.055Z,39.83
2023-06-29T02:25:16.088Z,32.63
2023-06-29T02:26:16.133Z,31.18
2023-06-29T02:27:16.175Z,42.21
2023-06-29T02:28:16.258Z,39.27
2023-06-29T02:29:16.206Z,42.00
2023-06-29T02:30:16.272Z,38.55
2023-06-29T02:31:16.342Z,43.74
2023-06-29T02:32:16.327Z,33.43
2023-06-29T02:33:16.346Z,46.34
2023-06-29T02:34:16.366Z,40.76
2023-06-29T02:35:16.378Z,40.65
2023-06-29T02:36:16.427Z,40.49
2023-06-29T02:37:16.419Z,43.67
2023-06-29T02:38:16.451Z,39.93
2023-06-29T02:39:16.496Z,41.22
2023-06-29T02:40:16.564Z,39.01
2023-06-29T02:41:16.529Z,36.18
2023-06-29T02:42:16.566Z,38.06
2023-06-29T02:43:16.616Z,43.17
2023-06-29T02:44:16.601Z,37.16
2023-06-29T02:45:16.590Z,41.24
2023-06-29T02:46:16.659Z,38.10
2023-06-29T02:47:16.659Z,43.30
2023-06-29T02:48:16.716Z,37.60
2023-06-29T02:49:16.701Z,41.53
2023-06-29T02:50:16.739Z,29.41
2023-06-29T02:51:16.743Z,33.45
2023-06-29T02:52:16.765Z,45.00
2023-06-29T02:53:16.775Z,39.82
2023-06-29T02:54:16.809Z,41.35
2023-06-29T02:55:16.800Z,36.15
2023-06-29T02:56:16.828Z,36.36
2023-06-29T02:57:16.820Z,42.99
2023-06-29T02:58:16.868Z,40.78
2023-06-29T02:59:16.915Z,34.72
2023-06-29T03:00:16.879Z,41.70
2023-06-29T03:01:16.959Z,45.50
2023-06-29T03:02:16.936Z,42.66
2023-06-29T03:03:16.974Z,33.94
2023-06-29T03:04:17.020Z,39.50
2023-06-29T03:05:17.003Z,39.83
2023-06-29T03:06:16.977Z,32.50
2023-06-29T03:07:17.060Z,33.36
2023-06-29T03:08:17.013Z,36.16
2023-06-29T03:09:17.064Z,44.50
2023-06-29T03:10:17.060Z,34.67
2023-06-29T03:11:17.131Z,43.74
2023-06-29T03:12:17.110Z,36.83
2023-06-29T03:13:17.235Z,35.62
2023-06-29T03:14:17.120Z,40.58
2023-06-29T03:15:17.280Z,34.74
2023-06-29T03:16:17.248Z,32.27
2023-06-29T03:17:17.290Z,37.01
2023-06-29T03:18:17.274Z,40.24
2023-06-29T03:19:17.242Z,36.77
2023-06-29T03:20:17.331Z,37.60
2023-06-29T03:21:18.614Z,41.53
2023-06-29T03:22:17.325Z,41.86
2023-06-29T03:23:17.761Z,37.78
2023-06-29T03:24:17.345Z,36.80
2023-06-29T03:25:17.353Z,33.66
2023-06-29T03:26:17.345Z,42.71
2023-06-29T03:27:17.340Z,40.46
2023-06-29T03:28:17.798Z,38.65
2023-06-29T03:29:17.381Z,41.29
2023-06-29T03:30:17.407Z,35.97
2023-06-29T03:31:17.476Z,43.29
2023-06-29T03:32:17.459Z,32.39
2023-06-29T03:33:17.777Z,40.03
2023-06-29T03:34:17.488Z,36.69
2023-06-29T03:35:17.480Z,34.16
2023-06-29T03:36:17.512Z,36.02
2023-06-29T03:37:17.537Z,38.47
2023-06-29T03:38:17.764Z,39.86
2023-06-29T03:39:17.575Z,36.53
2023-06-29T03:40:17.619Z,45.06
2023-06-29T03:41:17.628Z,39.31
2023-06-29T03:42:17.670Z,35.72
2023-06-29T03:43:17.786Z,37.15
2023-06-29T03:44:17.672Z,38.05
2023-06-29T03:45:17.718Z,33.90
2023-06-29T03:46:17.728Z,36.77
2023-06-29T03:47:17.733Z,35.66
2023-06-29T03:48:17.898Z,35.85
2023-06-29T03:49:17.782Z,28.88
2023-06-29T03:50:17.783Z,32.63
2023-06-29T03:51:17.794Z,38.08
2023-06-29T03:52:17.815Z,28.59
2023-06-29T03:53:17.863Z,26.72
2023-06-29T03:54:17.852Z,25.94
2023-06-29T03:55:17.860Z,33.59
2023-06-29T03:56:17.896Z,40.93
2023-06-29T03:57:17.909Z,35.06
2023-06-29T03:58:17.905Z,30.11
2023-06-29T03:59:17.925Z,40.86
2023-06-29T04:00:17.961Z,32.15
2023-06-29T04:01:17.972Z,37.34
2023-06-29T04:02:18.031Z,36.45
2023-06-29T04:03:18.009Z,37.08
2023-06-29T04:04:17.999Z,33.67
2023-06-29T04:05:18.026Z,33.46
2023-06-29T04:06:18.017Z,35.97
2023-06-29T04:07:18.059Z,31.97
2023-06-29T04:08:18.060Z,34.56
2023-06-29T04:09:18.081Z,37.04
2023-06-29T04:10:18.091Z,37.42
2023-06-29T04:11:18.112Z,33.89
2023-06-29T04:12:18.147Z,31.98
2023-06-29T04:13:18.154Z,29.78
2023-06-29T04:14:18.168Z,25.00
2023-06-29T04:15:18.192Z,36.32
2023-06-29T04:16:18.190Z,29.44
2023-06-29T04:17:18.213Z,35.29
2023-06-29T04:18:18.247Z,34.32
2023-06-29T04:19:18.237Z,31.13
2023-06-29T04:20:18.234Z,36.87
2023-06-29T04:21:18.278Z,33.18
2023-06-29T04:22:18.279Z,29.28
2023-06-29T04:23:18.267Z,27.39
2023-06-29T04:24:18.275Z,34.20
2023-06-29T04:25:18.313Z,26.71
2023-06-29T04:26:18.345Z,35.59
2023-06-29T04:27:18.323Z,33.03
2023-06-29T04:28:18.382Z,29.41
2023-06-29T04:29:18.373Z,34.60
2023-06-29T04:30:18.373Z,35.68
2023-06-29T04:31:18.421Z,30.02
2023-06-29T04:32:18.406Z,33.25
2023-06-29T04:33:18.426Z,34.34
2023-06-29T04:34:18.483Z,32.55
2023-06-29T04:35:18.471Z,36.23
2023-06-29T04:36:18.457Z,35.74
2023-06-29T04:37:18.469Z,30.61
2023-06-29T04:38:18.510Z,31.41
2023-06-29T04:39:18.499Z,31.87
2023-06-29T04:40:18.512Z,35.65
2023-06-29T04:41:18.534Z,32.19
2023-06-29T04:42:18.562Z,34.85
2023-06-29T04:43:18.577Z,32.74
2023-06-29T04:44:18.568Z,32.09
2023-06-29T04:45:18.695Z,31.04
2023-06-29T04:46:18.696Z,37.23
2023-06-29T04:47:18.676Z,27.56
2023-06-29T04:48:18.687Z,33.49
2023-06-29T04:49:18.709Z,36.34
2023-06-29T04:50:18.683Z,28.79
2023-06-29T04:51:18.761Z,27.21
2023-06-29T04:52:18.731Z,32.04
2023-06-29T04:53:18.761Z,31.80
2023-06-29T04:54:18.745Z,32.98
2023-06-29T04:55:18.809Z,30.85
2023-06-29T04:56:18.823Z,25.00
2023-06-29T04:57:18.827Z,34.80
2023-06-29T04:58:18.845Z,27.67
2023-06-29T04:59:18.844Z,32.43
2023-06-29T05:00:18.880Z,33.37
2023-06-29T05:01:18.872Z,30.40
2023-06-29T05:02:18.971Z,31.11
2023-06-29T05:03:18.988Z,40.03
2023-06-29T05:04:18.928Z,30.12
2023-06-29T05:05:18.968Z,32.21
2023-06-29T05:06:18.940Z,32.00
2023-06-29T05:07:19.044Z,29.90
2023-06-29T05:08:18.979Z,26.94
2023-06-29T05:09:19.027Z,38.69
2023-06-29T05:10:19.052Z,33.34
2023-06-29T05:11:19.035Z,31.53
2023-06-29T05:12:19.035Z,30.51
2023-06-29T05:13:19.090Z,37.48
2023-06-29T05:14:19.104Z,30.54
2023-06-29T05:15:19.109Z,29.86
2023-06-29T05:16:19.200Z,35.93
2023-06-29T05:17:19.193Z,33.68
2023-06-29T05:18:19.161Z,30.06
2023-06-29T05:19:19.191Z,34.90
2023-06-29T05:20:19.186Z,35.13
2023-06-29T05:21:19.210Z,35.72
2023-06-29T05:22:19.242Z,27.68
2023-06-29T05:23:19.219Z,38.48
2023-06-29T05:24:19.872Z,38.53
2023-06-29T05:25:19.268Z,32.86
2023-06-29T05:26:19.277Z,34.02
2023-06-29T05:27:19.308Z,39.62
2023-06-29T05:28:19.311Z,37.65
2023-06-29T05:29:19.367Z,41.03
2023-06-29T05:30:19.381Z,36.26
2023-06-29T05:31:19.481Z,40.04
2023-06-29T05:32:19.375Z,39.67
2023-06-29T05:33:19.432Z,36.97
2023-06-29T05:34:19.437Z,38.44
2023-06-29T05:35:19.428Z,34.20
2023-06-29T05:36:19.474Z,32.78
2023-06-29T05:37:19.498Z,37.65
2023-06-29T05:38:19.496Z,34.46
2023-06-29T05:39:19.542Z,38.44
2023-06-29T05:40:19.593Z,31.18
2023-06-29T05:41:19.534Z,34.06
2023-06-29T05:42:19.555Z,32.10
2023-06-29T05:43:19.570Z,37.93
2023-06-29T05:44:19.610Z,32.94
2023-06-29T05:45:19.621Z,30.88
2023-06-29T05:46:19.653Z,37.20
2023-06-29T05:47:19.636Z,38.66
2023-06-29T05:48:19.653Z,32.97
2023-06-29T05:49:19.673Z,35.43
2023-06-29T05:50:19.660Z,41.63
2023-06-29T05:51:19.673Z,53.18
2023-06-29T05:52:19.686Z,60.53
2023-06-29T05:53:19.726Z,66.80
2023-06-29T05:54:19.764Z,72.93
2023-06-29T05:55:19.762Z,85.37
2023-06-29T05:56:19.802Z,87.84
2023-06-29T05:57:19.819Z,113.50
2023-06-29T05:58:19.885Z,113.48
2023-06-29T05:59:19.949Z,122.40
2023-06-29T06:00:19.987Z,135.91
2023-06-29T06:01:20.158Z,141.69
2023-06-29T06:02:20.090Z,147.62
2023-06-29T06:03:20.119Z,158.06
2023-06-29T06:04:20.169Z,163.48
2023-06-29T06:05:20.157Z,173.54
2023-06-29T06:06:20.174Z,180.92
2023-06-29T06:07:20.322Z,195.83
2023-06-29T06:08:20.227Z,200.25
2023-06-29T06:09:20.218Z,210.17
2023-06-29T06:10:20.233Z,215.94
2023-06-29T06:11:20.295Z,230.62
2023-06-29T06:12:20.256Z,236.34
2023-06-29T06:13:20.259Z,242.66
2023-06-29T06:14:20.275Z,248.86
2023-06-29T06:15:20.291Z,250.00
2023-06-29T06:16:20.371Z,249.44
2023-06-29T06:17:20.327Z,250.00
2023-06-29T06:18:20.365Z,248.61
2023-06-29T06:19:20.381Z,248.97
2023-06-29T06:20:20.443Z,249.38
2023-06-29T06:21:20.443Z,249.28
2023-06-29T06:22:20.468Z,246.38
2023-06-29T06:23:20.448Z,248.13
2023-06-29T06:24:20.469Z,247.26
2023-06-29T06:25:20.470Z,248.83
2023-06-29T06:26:20.554Z,250.00
2023-06-29T06:27:20.553Z,250.00
2023-06-29T06:28:20.531Z,247.37
2023-06-29T06:29:20.607Z,246.51
2023-06-29T06:30:20.591Z,247.95
2023-06-29T06:31:32.455Z,247.72
2023-06-29T06:32:21.675Z,248.00
2023-06-29T06:33:20.597Z,248.49
2023-06-29T06:34:20.585Z,249.86
2023-06-29T06:35:20.571Z,250.93
2023-06-29T06:36:20.552Z,254.65
2023-06-29T06:37:20.530Z,246.84
2023-06-29T06:38:20.843Z,247.59
2023-06-29T06:39:20.524Z,248.66
2023-06-29T06:40:20.520Z,244.56
2023-06-29T06:41:20.523Z,246.20
2023-06-29T06:42:20.518Z,244.14
2023-06-29T06:43:20.539Z,246.65
2023-06-29T06:44:20.509Z,243.37
2023-06-29T06:45:20.484Z,241.96
2023-06-29T06:46:20.524Z,242.18
2023-06-29T06:47:20.494Z,242.71
2023-06-29T06:48:20.884Z,244.34
2023-06-29T06:49:20.485Z,245.65
2023-06-29T06:50:20.466Z,244.49
2023-06-29T06:51:20.530Z,246.93
2023-06-29T06:52:20.563Z,249.22
2023-06-29T06:53:20.572Z,249.00
2023-06-29T06:54:22.610Z,247.95
2023-06-29T06:55:20.615Z,249.61
2023-06-29T06:56:20.653Z,250.00
2023-06-29T06:57:20.625Z,249.89
2023-06-29T06:58:20.674Z,250.00
2023-06-29T06:59:20.755Z,249.58
2023-06-29T07:00:20.801Z,249.93
2023-06-29T07:01:20.961Z,249.61
2023-06-29T07:02:20.881Z,248.40
2023-06-29T07:03:20.958Z,250.00
2023-06-29T07:04:20.986Z,248.99
2023-06-29T07:05:21.011Z,250.00
2023-06-29T07:06:21.141Z,249.36
2023-06-29T07:07:21.192Z,257.78
2023-06-29T07:08:21.160Z,251.92
2023-06-29T07:09:21.157Z,248.10
2023-06-29T07:10:21.201Z,248.03
2023-06-29T07:11:21.216Z,249.55
2023-06-29T07:12:21.258Z,250.00
2023-06-29T07:13:21.285Z,250.00
2023-06-29T07:14:21.314Z,249.42
2023-06-29T07:15:21.317Z,249.10
2023-06-29T07:16:21.368Z,250.09
2023-06-29T07:17:21.344Z,250.00
2023-06-29T07:18:21.366Z,250.00
2023-06-29T07:21:23.506Z,248.34
2023-06-29T07:24:21.322Z,248.78
2023-06-29T07:25:21.341Z,251.06
2023-06-29T07:26:21.313Z,255.44
2023-06-29T07:27:21.315Z,262.79
2023-06-29T07:28:21.324Z,272.60
2023-06-29T07:29:21.315Z,261.42
2023-06-29T07:30:21.295Z,250.81
2023-06-29T07:31:21.304Z,250.00
2023-06-29T07:32:21.306Z,250.00
2023-06-29T07:33:21.261Z,249.12
2023-06-29T07:34:21.285Z,249.50
2023-06-29T07:35:21.237Z,250.00
2023-06-29T07:36:21.272Z,249.04
2023-06-29T07:37:21.247Z,249.17
2023-06-29T07:38:21.242Z,249.50
2023-06-29T07:39:21.249Z,248.91
2023-06-29T07:40:21.224Z,249.11
2023-06-29T07:41:21.233Z,249.95
2023-06-29T07:42:38.323Z,248.84
2023-06-29T07:43:22.220Z,249.01
2023-06-29T07:44:21.169Z,249.55
2023-06-29T07:45:21.198Z,250.45
2023-06-29T07:46:21.199Z,252.60
2023-06-29T07:47:21.260Z,256.81
2023-06-29T07:48:21.297Z,249.44
2023-06-29T07:49:21.175Z,246.41
2023-06-29T07:50:21.228Z,239.21
2023-06-29T07:51:21.117Z,221.90
2023-06-29T07:52:21.149Z,205.84
2023-06-29T07:53:21.122Z,201.56
2023-06-29T07:54:21.175Z,202.10
2023-06-29T07:55:21.163Z,198.58
2023-06-29T07:56:21.250Z,195.02
2023-06-29T07:59:21.190Z,182.19
2023-06-29T08:00:21.201Z,177.81
2023-06-29T08:01:21.190Z,171.96
2023-06-29T08:02:21.191Z,167.24
2023-06-29T08:03:21.179Z,164.55
2023-06-29T08:07:21.248Z,153.82
2023-06-29T08:08:21.246Z,149.86
2023-06-29T08:09:21.165Z,146.01
2023-06-29T08:10:21.155Z,142.62
2023-06-29T08:11:21.136Z,137.91
2023-06-29T08:12:21.091Z,134.32
2023-06-29T08:13:21.097Z,132.17
2023-06-29T08:14:21.073Z,129.35
2023-06-29T08:15:21.089Z,125.62
2023-06-29T08:16:21.174Z,123.66
2023-06-29T08:17:21.099Z,121.62
2023-06-29T08:18:21.059Z,119.00
2023-06-29T08:19:21.104Z,115.56
2023-06-29T08:20:21.076Z,113.60
2023-06-29T08:21:21.028Z,112.25
2023-06-29T08:22:21.071Z,110.34
2023-06-29T08:23:21.032Z,108.55
2023-06-29T08:24:21.051Z,106.35
2023-06-29T08:25:21.008Z,105.25
2023-06-29T08:26:21.028Z,102.66
2023-06-29T08:27:21.026Z,97.69
2023-06-29T08:28:21.003Z,97.68
2023-06-29T08:29:21.018Z,92.08
2023-06-29T08:30:20.978Z,88.34
2023-06-29T08:31:20.994Z,89.49
2023-06-29T08:32:21.058Z,85.32
2023-06-29T08:33:21.060Z,80.16
2023-06-29T08:34:20.975Z,77.89
2023-06-29T08:35:20.950Z,78.25
2023-06-29T08:36:20.938Z,77.02
2023-06-29T08:37:20.932Z,75.68
2023-06-29T08:38:20.949Z,74.44
2023-06-29T08:39:20.921Z,73.32
2023-06-29T08:40:20.886Z,73.21
2023-06-29T08:41:20.899Z,71.78
2023-06-29T08:42:20.936Z,71.83
2023-06-29T08:43:20.896Z,72.61
2023-06-29T08:44:20.864Z,69.21
2023-06-29T08:45:20.897Z,65.87
2023-06-29T08:46:20.893Z,66.71
2023-06-29T08:47:20.883Z,66.18
2023-06-29T08:48:20.870Z,66.36
2023-06-29T08:49:20.877Z,62.83
2023-06-29T08:50:20.858Z,63.40
2023-06-29T08:51:20.847Z,65.32
2023-06-29T08:52:20.832Z,59.13
2023-06-29T08:53:20.981Z,63.42
2023-06-29T08:54:20.797Z,55.34
2023-06-29T08:55:20.814Z,53.33
2023-06-29T08:56:20.775Z,56.23
2023-06-29T08:57:20.795Z,52.12
2023-06-29T08:58:20.907Z,49.40
2023-06-29T08:59:20.775Z,51.71
2023-06-29T09:00:20.801Z,50.14
2023-06-29T09:01:20.854Z,52.38
2023-06-29T09:02:20.782Z,55.04
2023-06-29T09:03:20.997Z,63.30
2023-06-29T09:04:20.740Z,66.48
2023-06-29T09:05:20.739Z,69.67
2023-06-29T09:06:20.726Z,73.49
2023-06-29T09:07:20.785Z,75.79
2023-06-29T09:08:20.741Z,77.68
2023-06-29T09:09:20.701Z,78.78
2023-06-29T09:10:20.682Z,81.28
2023-06-29T09:11:20.665Z,81.70
2023-06-29T09:12:20.681Z,113.78
2023-06-29T09:13:20.710Z,115.14
2023-06-29T09:14:20.688Z,110.35
2023-06-29T09:15:20.666Z,106.94
2023-06-29T09:16:20.710Z,106.93
2023-06-29T09:17:20.703Z,106.13
2023-06-29T09:18:20.671Z,109.98
2023-06-29T09:19:20.623Z,111.33
2023-06-29T09:20:20.709Z,115.63
2023-06-29T09:21:20.621Z,120.44
2023-06-29T09:22:20.638Z,125.14
2023-06-29T09:23:20.706Z,128.13
2023-06-29T09:24:20.751Z,133.82
2023-06-29T09:25:33.052Z,138.51
2023-06-29T09:26:21.795Z,138.71
2023-06-29T09:27:20.769Z,139.70
2023-06-29T09:28:20.942Z,142.31
2023-06-29T09:29:20.771Z,146.43
2023-06-29T09:30:20.812Z,154.24
2023-06-29T09:31:20.821Z,158.18
2023-06-29T09:32:20.767Z,160.07
2023-06-29T09:33:20.900Z,162.95
2023-06-29T09:34:20.750Z,166.34
2023-06-29T09:35:20.799Z,169.68
2023-06-29T09:36:20.936Z,169.82
2023-06-29T09:37:20.900Z,172.47
2023-06-29T09:38:21.448Z,170.62
2023-06-29T09:39:21.024Z,158.24
2023-06-29T09:40:21.103Z,155.39
2023-06-29T09:41:21.070Z,156.28
2023-06-29T09:42:21.129Z,155.16
2023-06-29T09:43:21.162Z,155.90
2023-06-29T09:44:21.217Z,154.72
2023-06-29T09:45:21.526Z,154.13
2023-06-29T09:46:21.417Z,154.70
2023-06-29T09:49:21.529Z,153.06
2023-06-29T09:50:21.588Z,153.18
2023-06-29T09:51:21.457Z,152.98
2023-06-29T09:52:21.377Z,153.44
2023-06-29T09:53:21.881Z,154.25
2023-06-29T09:54:21.274Z,155.21
2023-06-29T09:55:21.269Z,155.54
2023-06-29T09:56:21.315Z,155.62
2023-06-29T09:57:21.291Z,154.47
2023-06-29T09:58:21.268Z,154.68
2023-06-29T09:59:21.262Z,153.32
2023-06-29T10:00:21.234Z,154.75
2023-06-29T10:01:21.272Z,154.69
2023-06-29T10:02:21.299Z,154.08
2023-06-29T10:03:21.273Z,153.14
2023-06-29T10:04:21.214Z,153.02
2023-06-29T10:05:21.205Z,151.44
2023-06-29T10:06:21.207Z,150.20
2023-06-29T10:07:21.197Z,152.21
2023-06-29T10:08:21.230Z,150.45
2023-06-29T10:09:21.195Z,152.73
2023-06-29T10:10:21.166Z,151.32
2023-06-29T10:11:21.187Z,152.08
2023-06-29T10:12:21.172Z,152.55
2023-06-29T10:13:21.156Z,151.92
2023-06-29T10:14:21.166Z,152.86
2023-06-29T10:15:21.150Z,152.53
2023-06-29T10:16:21.158Z,151.24
2023-06-29T10:17:21.212Z,150.78
2023-06-29T10:18:21.140Z,149.80
2023-06-29T10:19:21.140Z,148.76
2023-06-29T10:20:21.122Z,149.82
2023-06-29T10:21:21.119Z,147.30
2023-06-29T10:22:21.090Z,147.33
2023-06-29T10:23:21.588Z,145.63
2023-06-29T10:24:21.143Z,143.66
2023-06-29T10:25:21.072Z,141.23
2023-06-29T10:26:21.082Z,140.55
2023-06-29T10:27:21.043Z,140.79
2023-06-29T10:28:21.063Z,137.64
2023-06-29T10:29:21.060Z,137.68
2023-06-29T10:30:21.033Z,137.94
2023-06-29T10:31:21.052Z,135.33
2023-06-29T10:32:21.025Z,135.76
2023-06-29T10:33:21.423Z,136.14
2023-06-29T10:34:21.049Z,135.46
2023-06-29T10:35:21.014Z,135.00
2023-06-29T10:36:21.031Z,135.21
2023-06-29T10:37:21.011Z,135.02
2023-06-29T10:38:21.437Z,135.14
2023-06-29T10:39:21.003Z,135.96
2023-06-29T10:40:20.973Z,135.17
2023-06-29T10:41:20.976Z,134.93
2023-06-29T10:42:20.956Z,136.09
2023-06-29T10:43:21.942Z,133.09
2023-06-29T10:44:21.029Z,134.31
2023-06-29T10:45:21.030Z,134.46
2023-06-29T10:46:21.099Z,135.35
2023-06-29T10:47:21.094Z,132.92
2023-06-29T10:48:38.385Z,135.30
2023-06-29T10:49:22.179Z,135.31
2023-06-29T10:50:21.149Z,133.14
2023-06-29T10:51:21.122Z,132.05
2023-06-29T10:52:21.089Z,132.18
2023-06-29T10:53:21.102Z,131.03
2023-06-29T10:54:21.169Z,133.04
2023-06-29T10:55:21.076Z,131.60
2023-06-29T10:56:21.087Z,129.68
2023-06-29T10:57:21.070Z,130.78
2023-06-29T10:58:21.120Z,128.71
2023-06-29T10:59:21.081Z,128.76
2023-06-29T11:00:21.062Z,128.58
2023-06-29T11:01:21.068Z,128.80
2023-06-29T11:02:21.130Z,129.14
2023-06-29T11:03:21.173Z,128.79
2023-06-29T11:04:21.231Z,127.40
2023-06-29T11:05:21.222Z,127.28
2023-06-29T11:07:22.225Z,128.25
2023-06-29T11:08:21.227Z,128.20
2023-06-29T11:09:21.265Z,127.61
2023-06-29T11:10:21.201Z,126.78
2023-06-29T11:11:21.193Z,127.60
2023-06-29T11:12:21.178Z,126.37
2023-06-29T11:13:21.165Z,125.41
2023-06-29T11:14:21.181Z,126.08
2023-06-29T11:16:22.222Z,125.35
2023-06-29T11:17:21.188Z,125.32
2023-06-29T11:18:21.428Z,125.45
2023-06-29T11:19:21.146Z,125.42
2023-06-29T11:20:21.106Z,126.22
2023-06-29T11:21:21.111Z,125.35
2023-06-29T11:22:21.087Z,126.62
2023-06-29T11:23:21.101Z,124.90
2023-06-29T11:24:21.120Z,125.23
2023-06-29T11:25:21.074Z,123.83
2023-06-29T11:26:21.085Z,125.25
2023-06-29T11:27:21.084Z,123.95
2023-06-29T11:28:21.205Z,124.42
2023-06-29T11:29:21.190Z,123.68
2023-06-29T11:30:21.877Z,124.60
2023-06-29T11:31:21.426Z,124.28
2023-06-29T11:32:21.310Z,122.97
2023-06-29T11:33:33.869Z,122.99
2023-06-29T11:34:22.354Z,123.12
2023-06-29T11:35:21.330Z,123.20
2023-06-29T11:36:21.342Z,123.16
2023-06-29T11:37:23.864Z,123.09
2023-06-29T11:38:21.341Z,123.91
2023-06-29T11:39:21.300Z,124.37
2023-06-29T11:40:21.301Z,122.75
2023-06-29T11:41:21.285Z,121.98
2023-06-29T11:42:21.344Z,122.31
2023-06-29T11:44:21.293Z,123.32
2023-06-29T11:45:21.266Z,123.49
2023-06-29T11:46:21.309Z,123.56
2023-06-29T11:48:21.326Z,123.39
2023-06-29T11:49:23.096Z,123.40
2023-06-29T11:50:21.308Z,122.35
2023-06-29T11:51:21.228Z,121.75
2023-06-29T11:52:21.232Z,121.40
2023-06-29T11:53:21.225Z,122.54
2023-06-29T11:54:21.195Z,120.77
2023-06-29T11:55:23.689Z,121.62
2023-06-29T11:56:21.188Z,120.84
2023-06-29T11:57:21.213Z,121.46
2023-06-29T11:58:21.177Z,118.60
2023-06-29T11:59:21.186Z,118.75
2023-06-29T12:00:21.211Z,120.32
2023-06-29T12:01:22.692Z,120.55
2023-06-29T12:02:21.242Z,120.13
2023-06-29T12:03:21.266Z,120.25
2023-06-29T12:04:21.326Z,117.85
2023-06-29T12:05:21.136Z,117.46
2023-06-29T12:06:21.113Z,117.71
2023-06-29T12:07:21.208Z,117.19
2023-06-29T12:08:21.194Z,117.47
2023-06-29T12:09:21.127Z,115.03
2023-06-29T12:10:21.176Z,115.69
2023-06-29T12:11:22.869Z,116.00
2023-06-29T12:12:21.153Z,115.23
2023-06-29T12:13:21.164Z,114.12
2023-06-29T12:14:21.064Z,112.29
2023-06-29T12:15:21.040Z,112.89
2023-06-29T12:18:21.203Z,114.80
2023-06-29T12:19:21.246Z,114.63
2023-06-29T12:20:21.195Z,114.56
2023-06-29T12:21:21.329Z,113.51
2023-06-29T12:22:21.037Z,114.30
2023-06-29T12:23:21.022Z,112.77
2023-06-29T12:24:21.053Z,113.62
2023-06-29T12:25:21.007Z,112.61
2023-06-29T12:26:20.996Z,112.60
2023-06-29T12:27:21.017Z,112.77
2023-06-29T12:28:20.983Z,110.72
2023-06-29T12:29:20.989Z,110.49
2023-06-29T12:30:20.983Z,111.17
2023-06-29T12:31:21.010Z,111.34
2023-06-29T12:32:20.998Z,111.25
2023-06-29T12:33:20.959Z,109.55
2023-06-29T12:34:20.958Z,109.59
2023-06-29T12:35:20.931Z,109.09
2023-06-29T12:36:20.914Z,109.27
2023-06-29T12:37:20.934Z,106.33
2023-06-29T12:38:20.957Z,108.79
2023-06-29T12:39:20.968Z,106.23
2023-06-29T12:40:20.896Z,106.99
2023-06-29T12:41:20.874Z,105.57
2023-06-29T12:42:20.870Z,107.20
2023-06-29T12:43:20.876Z,106.35
2023-06-29T12:44:20.856Z,106.53
2023-06-29T12:45:20.895Z,104.74
2023-06-29T12:46:20.824Z,105.14
2023-06-29T12:47:20.910Z,105.34
2023-06-29T12:48:20.902Z,105.17
2023-06-29T12:49:20.820Z,104.89
2023-06-29T12:50:20.834Z,104.15
2023-06-29T12:51:20.831Z,103.87
2023-06-29T12:52:20.807Z,103.83
2023-06-29T12:53:20.803Z,104.80
2023-06-29T12:54:20.800Z,102.96
2023-06-29T12:55:20.806Z,104.05
2023-06-29T12:56:20.781Z,102.86